Time;durP1;ratioP1;P1;durP2;ratioP2;P2;SDS_P1;SDS_P2;PMS_P1;PMS_P2;Temp;Humidity;BMP_temperature;BMP_pressure;BME280_temperature;BME280_humidity;BME280_pressure;Samples;Min_cycle;Max_cycle;Signal;HPM_P1;HPM_P2
2022/04/09 00:00:50;;;;;;;11.48;2.13;;;;;;;3.43;86.04;100405.28;4995247;28;20196;-85
2022/04/09 00:03:15;;;;;;;17.05;2.55;;;;;;;3.40;85.83;100412.97;5026537;28;20035;-85
2022/04/09 00:05:41;;;;;;;17.27;2.65;;;;;;;3.41;85.92;100419.81;4996417;28;20121;-85
2022/04/09 00:08:07;;;;;;;17.92;2.78;;;;;;;3.41;86.33;100425.75;5005229;28;20052;-85
2022/04/09 00:10:32;;;;;;;16.38;2.70;;;;;;;3.40;86.05;100434.31;4993173;28;20614;-85
2022/04/09 00:12:58;;;;;;;20.63;3.20;;;;;;;3.43;85.99;100439.44;5002554;28;20479;-85
2022/04/09 00:15:23;;;;;;;16.80;2.33;;;;;;;3.47;86.33;100445.41;4999904;28;20036;-85
2022/04/09 00:17:48;;;;;;;11.85;2.20;;;;;;;3.52;85.86;100447.13;5005697;28;20115;-85
2022/04/09 00:20:16;;;;;;;11.50;2.58;;;;;;;3.57;86.97;100452.22;4997066;28;20026;-85
2022/04/09 00:22:42;;;;;;;12.23;2.50;;;;;;;3.57;85.45;100457.34;4990841;28;20109;-85
2022/04/09 00:25:10;;;;;;;14.27;2.88;;;;;;;3.54;85.29;100457.38;4999751;28;20112;-85
2022/04/09 00:27:36;;;;;;;12.18;2.30;;;;;;;3.47;85.65;100455.66;5006991;28;20499;-85
2022/04/09 00:30:07;;;;;;;20.42;2.92;;;;;;;3.44;85.58;100464.19;5006157;28;20555;-85
2022/04/09 00:32:32;;;;;;;15.07;2.50;;;;;;;3.40;85.91;100466.78;5001221;28;20038;-85
2022/04/09 00:34:57;;;;;;;14.68;2.53;;;;;;;3.36;86.72;100468.47;4997461;28;20053;-85
2022/04/09 00:37:23;;;;;;;12.45;2.13;;;;;;;3.34;86.68;100471.91;5000858;28;20481;-84
2022/04/09 00:39:48;;;;;;;12.90;2.70;;;;;;;3.32;86.24;100474.47;4997831;28;20041;-84
2022/04/09 00:42:18;;;;;;;11.32;2.38;;;;;;;3.32;86.47;100487.28;5003553;28;20041;-85
2022/04/09 00:44:44;;;;;;;14.20;2.53;;;;;;;3.31;85.93;100487.25;5009426;28;20034;-85
2022/04/09 00:47:10;;;;;;;14.07;2.20;;;;;;;3.29;86.32;100491.50;5004293;28;20033;-85
2022/04/09 00:49:39;;;;;;;14.93;2.90;;;;;;;3.25;86.16;100492.38;4999752;28;20422;-85
2022/04/09 00:52:07;;;;;;;16.90;2.55;;;;;;;3.22;85.96;100495.78;5001933;28;20221;-85
2022/04/09 00:54:36;;;;;;;12.38;2.53;;;;;;;3.21;86.00;100500.94;5025906;28;20239;-85
2022/04/09 00:57:05;;;;;;;10.70;1.90;;;;;;;3.21;86.36;100504.31;4993878;28;20269;-85
2022/04/09 00:59:35;;;;;;;14.23;2.05;;;;;;;3.24;86.16;100514.56;5003262;28;20403;-85
2022/04/09 01:02:02;;;;;;;10.52;2.03;;;;;;;3.23;85.59;100514.56;4999588;28;20143;-85
2022/04/09 01:04:28;;;;;;;14.10;2.65;;;;;;;3.23;86.24;100515.44;5004105;28;20030;-85
2022/04/09 01:06:55;;;;;;;15.45;2.13;;;;;;;3.24;85.68;100517.13;5008473;28;20033;-85
2022/04/09 01:09:21;;;;;;;11.98;2.08;;;;;;;3.21;85.58;100523.97;4995968;28;20058;-85
2022/04/09 01:11:46;;;;;;;11.52;2.13;;;;;;;3.22;85.38;100525.66;4995259;28;20146;-85
2022/04/09 01:14:12;;;;;;;16.42;2.20;;;;;;;3.18;85.14;100532.50;5004360;28;20060;-85
2022/04/09 01:16:37;;;;;;;16.35;2.03;;;;;;;3.16;85.91;100527.38;5006378;28;20038;-85
2022/04/09 01:19:06;;;;;;;11.43;1.83;;;;;;;3.13;85.91;100526.53;4999094;28;20487;-85
2022/04/09 01:21:31;;;;;;;14.82;2.20;;;;;;;3.12;86.31;100540.19;5012124;28;20026;-85
2022/04/09 01:23:57;;;;;;;9.88;2.33;;;;;;;3.10;85.67;100549.56;5007009;28;20269;-84
2022/04/09 01:26:23;;;;;;;15.65;1.95;;;;;;;3.07;85.88;100547.00;5003366;28;20124;-85
2022/04/09 01:28:49;;;;;;;15.02;2.10;;;;;;;3.05;86.27;100553.81;4997180;28;20095;-85
2022/04/09 01:31:15;;;;;;;12.45;2.58;;;;;;;3.06;86.21;100553.84;5007687;28;20475;-85
2022/04/09 01:33:41;;;;;;;12.32;2.22;;;;;;;3.04;85.55;100557.22;5010449;28;20033;-85
2022/04/09 01:36:06;;;;;;;13.57;2.00;;;;;;;3.06;86.18;100561.50;5002395;28;20273;-85
2022/04/09 01:38:34;;;;;;;9.90;1.75;;;;;;;3.06;86.54;100574.31;5007055;28;20026;-85
2022/04/09 01:40:59;;;;;;;11.00;1.88;;;;;;;3.08;86.63;100575.16;4999221;28;20025;-85
2022/04/09 01:43:24;;;;;;;14.27;2.05;;;;;;;3.10;85.88;100573.47;5009047;28;20022;-85
2022/04/09 01:45:50;;;;;;;12.00;2.10;;;;;;;3.09;85.88;100579.44;5001406;28;20621;-85
2022/04/09 01:48:15;;;;;;;14.75;2.97;;;;;;;3.10;86.13;100585.41;5006084;28;20288;-85
2022/04/09 01:50:40;;;;;;;12.05;2.17;;;;;;;3.10;86.29;100593.94;5001382;28;20072;-85
2022/04/09 01:53:06;;;;;;;15.80;1.90;;;;;;;3.10;86.01;100596.50;5008990;28;20032;-85
2022/04/09 01:55:32;;;;;;;13.48;2.35;;;;;;;3.11;87.01;100592.25;5004603;28;20285;-85
2022/04/09 01:57:58;;;;;;;17.50;2.22;;;;;;;3.10;86.64;100596.50;5009121;28;20030;-85
2022/04/09 02:00:24;;;;;;;10.18;2.00;;;;;;;3.09;85.99;100610.16;5011361;28;20051;-85
2022/04/09 02:02:49;;;;;;;14.75;1.80;;;;;;;3.09;85.92;100609.28;5010275;28;20041;-85
2022/04/09 02:05:14;;;;;;;15.13;2.20;;;;;;;3.06;86.49;100614.41;5009379;28;20034;-85
2022/04/09 02:07:41;;;;;;;9.25;1.73;;;;;;;3.04;85.47;100616.13;5010544;28;20130;-85
2022/04/09 02:10:07;;;;;;;11.65;2.20;;;;;;;3.00;85.92;100617.78;5005738;28;20037;-85
2022/04/09 02:12:34;;;;;;;11.00;2.08;;;;;;;2.98;86.66;100629.75;4998490;28;20192;-85
2022/04/09 02:15:10;;;;;;;14.75;2.25;;;;;;;2.96;86.01;100623.75;5006001;28;20056;-85
2022/04/09 02:17:38;;;;;;;12.57;1.70;;;;;;;2.95;86.19;100624.59;5004864;28;20041;-85
2022/04/09 02:20:04;;;;;;;13.57;2.28;;;;;;;2.94;85.91;100640.81;5008656;28;20034;-85
2022/04/09 02:22:37;;;;;;;14.68;2.45;;;;;;;2.91;85.94;100640.81;5003493;28;20022;-85
2022/04/09 02:25:04;;;;;;;14.02;1.95;;;;;;;2.92;86.36;100650.22;4989879;28;20034;-85
2022/04/09 02:27:29;;;;;;;11.35;2.00;;;;;;;2.91;87.11;100651.06;5000039;28;20029;-85
2022/04/09 02:29:55;;;;;;;10.75;1.70;;;;;;;2.88;86.38;100645.06;5004728;28;20110;-85
2022/04/09 02:32:21;;;;;;;9.43;1.58;;;;;;;2.89;86.85;100654.44;5001546;28;20057;-85
2022/04/09 02:34:46;;;;;;;11.43;1.83;;;;;;;2.91;87.20;100655.31;5002724;28;20606;-85
2022/04/09 02:37:11;;;;;;;13.53;1.90;;;;;;;2.94;86.89;100663.84;5003322;28;20411;-85
2022/04/09 02:39:36;;;;;;;16.37;2.20;;;;;;;2.97;86.02;100666.44;5003973;28;20273;-85
2022/04/09 02:42:02;;;;;;;12.82;1.70;;;;;;;3.01;86.28;100677.53;5004541;28;20285;-85
2022/04/09 02:44:28;;;;;;;12.80;2.03;;;;;;;2.99;85.84;100672.44;5012132;28;20116;-85
2022/04/09 02:46:53;;;;;;;12.07;2.20;;;;;;;3.02;85.72;100684.38;5002290;28;20104;-85
2022/04/09 02:49:20;;;;;;;9.05;1.95;;;;;;;3.07;85.28;100688.66;5010848;28;20053;-85
2022/04/09 02:51:45;;;;;;;15.60;1.98;;;;;;;3.15;85.96;100697.22;5002321;28;20480;-85
2022/04/09 02:54:16;;;;;;;10.18;2.05;;;;;;;3.21;85.11;100693.84;5008728;28;20076;-85
2022/04/09 02:56:46;;;;;;;8.98;1.65;;;;;;;3.27;84.96;100693.88;5001475;28;20030;-85
2022/04/09 02:59:13;;;;;;;12.52;2.08;;;;;;;3.34;84.37;100694.75;5008362;28;20034;-85
2022/04/09 03:01:43;;;;;;;10.85;1.80;;;;;;;3.35;83.78;100699.84;5003435;28;20034;-85
2022/04/09 03:04:08;;;;;;;10.75;1.88;;;;;;;3.33;83.87;100699.03;4998301;28;20549;-85
2022/04/09 03:06:34;;;;;;;11.85;1.55;;;;;;;3.31;84.34;100699.84;4995031;28;20054;-85
2022/04/09 03:08:59;;;;;;;8.10;1.50;;;;;;;3.29;84.71;100702.41;4999647;28;20033;-85
2022/04/09 03:11:25;;;;;;;13.00;1.70;;;;;;;3.27;84.62;100705.81;4999978;28;20022;-85
2022/04/09 03:13:50;;;;;;;10.52;1.80;;;;;;;3.25;84.32;100710.94;4997251;28;20038;-85
2022/04/09 03:16:15;;;;;;;14.32;1.92;;;;;;;3.23;83.84;100722.00;5007250;28;20062;-85
2022/04/09 03:18:41;;;;;;;10.77;1.88;;;;;;;3.20;84.13;100725.44;5006974;28;20479;-85
2022/04/09 03:21:06;;;;;;;7.88;1.65;;;;;;;3.17;84.01;100731.41;5008253;28;20552;-85
2022/04/09 03:23:31;;;;;;;8.57;1.70;;;;;;;3.17;84.89;100730.53;4994569;28;20032;-85
2022/04/09 03:25:57;;;;;;;9.73;1.58;;;;;;;3.15;84.58;100738.19;5004498;28;20080;-84
2022/04/09 03:28:22;;;;;;;10.45;1.75;;;;;;;3.12;84.19;100735.66;5008809;28;20034;-85
2022/04/09 03:30:48;;;;;;;14.07;1.90;;;;;;;3.06;83.97;100743.31;4999078;28;20025;-84
2022/04/09 03:33:13;;;;;;;12.05;1.55;;;;;;;3.04;85.58;100745.00;4997778;28;20044;-85
2022/04/09 03:35:40;;;;;;;6.15;1.55;;;;;;;2.97;84.16;100745.81;5006938;28;20041;-85
2022/04/09 03:38:05;;;;;;;10.32;2.17;;;;;;;2.92;85.02;100750.03;4998179;28;20476;-85
2022/04/09 03:40:30;;;;;;;8.82;1.75;;;;;;;2.89;84.37;100757.69;4999680;28;20040;-85
2022/04/09 03:42:56;;;;;;;11.27;1.90;;;;;;;2.84;84.69;100751.69;4995833;28;20034;-85
2022/04/09 03:45:21;;;;;;;9.63;1.73;;;;;;;2.82;84.41;100755.09;5001590;28;20071;-84
2022/04/09 03:47:46;;;;;;;10.43;1.60;;;;;;;2.77;85.97;100752.50;5011102;28;20290;-84
2022/04/09 03:50:12;;;;;;;16.07;1.63;;;;;;;2.73;85.81;100766.09;5001266;28;20068;-85
2022/04/09 03:52:38;;;;;;;7.22;1.50;;;;;;;2.70;85.94;100768.66;5000562;28;20643;-84
2022/04/09 03:55:04;;;;;;;10.15;1.65;;;;;;;2.65;86.46;100771.19;5006171;28;20032;-84
2022/04/09 03:57:30;;;;;;;7.43;1.60;;;;;;;2.60;85.39;100764.31;5002100;28;20462;-84
2022/04/09 03:59:57;;;;;;;11.07;2.13;;;;;;;2.57;85.30;100770.28;5001392;28;20554;-85
2022/04/09 04:02:23;;;;;;;11.23;2.30;;;;;;;2.56;85.54;100772.81;4998851;28;20049;-85
2022/04/09 04:04:49;;;;;;;9.63;2.28;;;;;;;2.54;85.37;100780.47;4997197;28;20034;-85
2022/04/09 04:07:17;;;;;;;14.07;2.35;;;;;;;2.52;85.44;100781.34;4997890;28;20030;-85
2022/04/09 04:09:42;;;;;;;12.23;2.38;;;;;;;2.48;86.07;100783.00;5006174;28;20100;-85
2022/04/09 04:12:08;;;;;;;14.00;2.25;;;;;;;2.47;85.80;100790.66;5008807;28;20132;-84
2022/04/09 04:14:33;;;;;;;8.60;1.70;;;;;;;2.44;85.75;100796.63;4987949;28;20593;-84
2022/04/09 04:16:59;;;;;;;15.05;2.33;;;;;;;2.42;85.67;100800.00;5002421;28;20101;-85
2022/04/09 04:19:24;;;;;;;9.57;2.40;;;;;;;2.36;86.21;100805.91;4990088;28;20030;-85
2022/04/09 04:21:49;;;;;;;9.65;2.03;;;;;;;2.35;87.07;100805.06;4997544;28;20032;-85
2022/04/09 04:24:15;;;;;;;11.05;2.08;;;;;;;2.31;86.43;100813.56;4990056;28;20026;-85
2022/04/09 04:26:40;;;;;;;14.13;2.10;;;;;;;2.32;87.28;100814.41;4990888;28;20030;-85
2022/04/09 04:29:05;;;;;;;15.00;2.70;;;;;;;2.29;87.24;100824.59;4991017;28;20032;-85
2022/04/09 04:31:30;;;;;;;11.97;2.10;;;;;;;2.24;87.15;100819.47;4991024;28;20415;-85
2022/04/09 04:33:56;;;;;;;11.13;2.10;;;;;;;2.20;86.93;100817.69;4991264;28;20277;-85
2022/04/09 04:36:21;;;;;;;11.75;2.45;;;;;;;2.17;87.19;100821.94;4989558;28;20300;-84
2022/04/09 04:38:47;;;;;;;13.73;2.30;;;;;;;2.17;87.39;100827.06;4991109;28;20032;-85
2022/04/09 04:41:12;;;;;;;8.48;1.98;;;;;;;2.16;87.51;100828.75;4990128;28;20026;-85
2022/04/09 04:43:38;;;;;;;12.35;2.50;;;;;;;2.20;88.48;100832.19;4990955;28;20045;-85
2022/04/09 04:46:03;;;;;;;12.73;2.50;;;;;;;2.17;87.51;100838.13;4990051;28;20018;-85
2022/04/09 04:48:28;;;;;;;11.35;2.78;;;;;;;2.18;87.65;100833.88;4990142;28;20030;-85
2022/04/09 04:50:54;;;;;;;15.25;3.28;;;;;;;2.21;88.19;100850.09;4990454;28;20038;-85
2022/04/09 04:53:19;;;;;;;18.65;3.00;;;;;;;2.23;87.71;100839.88;4990033;28;20037;-85
2022/04/09 04:55:44;;;;;;;12.90;2.80;;;;;;;2.24;87.42;100847.59;4993378;28;20018;-85
2022/04/09 04:58:10;;;;;;;12.30;2.47;;;;;;;2.24;87.64;100845.03;5003790;28;20105;-85
2022/04/09 05:00:35;;;;;;;12.93;2.38;;;;;;;2.25;88.00;100856.13;5000341;28;20278;-85
2022/04/09 05:03:00;;;;;;;16.40;2.47;;;;;;;2.25;87.47;100854.38;5002381;28;20037;-85
2022/04/09 05:05:26;;;;;;;12.63;2.47;;;;;;;2.26;87.01;100861.22;5002517;28;20030;-85
2022/04/09 05:07:53;;;;;;;14.50;2.42;;;;;;;2.26;87.47;100856.09;4989932;28;20030;-85
2022/04/09 05:10:20;;;;;;;9.80;2.25;;;;;;;2.26;87.10;100866.34;5004501;28;20117;-85
2022/04/09 05:12:46;;;;;;;15.98;2.58;;;;;;;2.25;87.10;100864.63;4995448;28;20036;-84
2022/04/09 05:15:14;;;;;;;12.02;2.50;;;;;;;2.25;87.01;100876.56;5001423;28;20062;-85
2022/04/09 05:17:39;;;;;;;15.55;3.35;;;;;;;2.26;87.48;100885.94;4993347;28;20193;-85
2022/04/09 05:20:07;;;;;;;10.45;2.67;;;;;;;2.29;87.22;100894.50;5007009;28;20022;-85
2022/04/09 05:22:32;;;;;;;15.32;2.72;;;;;;;2.34;87.63;100895.41;4998793;28;20062;-85
2022/04/09 05:24:58;;;;;;;15.25;3.35;;;;;;;2.40;87.20;100904.84;4990289;28;20080;-85
2022/04/09 05:27:24;;;;;;;16.23;3.10;;;;;;;2.47;87.10;100910.88;4997861;28;20049;-85
2022/04/09 05:29:50;;;;;;;13.35;2.78;;;;;;;2.51;87.59;100913.50;4998430;28;20022;-85
2022/04/09 05:32:16;;;;;;;13.13;2.70;;;;;;;2.57;86.93;100915.25;5001692;28;20037;-85
2022/04/09 05:34:42;;;;;;;13.02;2.72;;;;;;;2.63;86.82;100916.19;5006518;28;20030;-85
2022/04/09 05:37:08;;;;;;;12.90;2.55;;;;;;;2.71;86.98;100922.22;5001325;28;20491;-85
2022/04/09 05:39:33;;;;;;;12.30;2.40;;;;;;;2.80;86.20;100923.16;4994140;28;20041;-85
2022/04/09 05:41:59;;;;;;;9.33;2.43;;;;;;;2.86;85.71;100931.75;4984468;28;20076;-85
2022/04/09 05:44:24;;;;;;;14.07;2.53;;;;;;;2.91;85.07;100924.09;4987358;28;20623;-86
2022/04/09 05:46:49;;;;;;;12.25;2.60;;;;;;;2.97;85.76;100937.81;4984978;28;20027;-86
2022/04/09 05:49:15;;;;;;;15.52;2.20;;;;;;;2.99;84.71;100932.72;5017335;28;20133;-85
2022/04/09 05:51:40;;;;;;;11.68;2.58;;;;;;;3.00;84.79;100944.66;5017767;28;20075;-85
2022/04/09 05:54:05;;;;;;;14.40;2.13;;;;;;;3.00;84.78;100948.06;4987717;28;20026;-85
2022/04/09 05:56:31;;;;;;;12.02;2.08;;;;;;;3.03;84.67;100947.25;4991316;28;20049;-85
2022/04/09 05:58:56;;;;;;;10.20;2.45;;;;;;;3.04;85.00;100957.50;4989466;28;20033;-86
2022/04/09 06:01:22;;;;;;;13.55;2.80;;;;;;;2.99;83.86;100953.19;4990153;28;20437;-85
2022/04/09 06:03:47;;;;;;;11.85;2.40;;;;;;;2.94;84.59;100954.84;4981937;28;20040;-85
2022/04/09 06:06:12;;;;;;;12.70;2.40;;;;;;;2.89;84.24;100961.63;4986858;28;20531;-85
2022/04/09 06:08:38;;;;;;;12.07;2.47;;;;;;;2.91;84.66;100971.03;4989798;28;20305;-85
2022/04/09 06:11:04;;;;;;;10.85;2.53;;;;;;;2.97;84.50;100971.09;4989812;28;20027;-85
2022/04/09 06:13:29;;;;;;;11.15;2.70;;;;;;;3.05;84.48;100972.03;4995161;28;20026;-85
2022/04/09 06:15:55;;;;;;;10.35;2.30;;;;;;;3.24;84.07;100977.28;4994795;28;20030;-86
2022/04/09 06:18:20;;;;;;;13.13;2.38;;;;;;;3.40;83.47;100981.72;4990502;28;20097;-85
2022/04/09 06:20:46;;;;;;;12.85;2.95;;;;;;;3.52;83.95;100989.47;4993094;28;20434;-86
2022/04/09 06:23:11;;;;;;;12.23;2.35;;;;;;;3.66;83.87;100990.44;5018819;28;20046;-85
2022/04/09 06:25:36;;;;;;;16.35;2.85;;;;;;;3.89;84.24;100998.28;4993579;28;20049;-85
2022/04/09 06:28:02;;;;;;;12.23;2.80;;;;;;;4.41;83.62;101013.91;4993120;28;20072;-86
2022/04/09 06:30:27;;;;;;;18.23;2.97;;;;;;;5.05;83.60;101027.81;4993120;28;20030;-86
2022/04/09 06:32:53;;;;;;;10.02;2.50;;;;;;;5.69;80.27;101040.69;4993429;28;20049;-86
2022/04/09 06:35:19;;;;;;;13.00;2.55;;;;;;;5.86;78.33;101029.53;4993093;28;20052;-86
2022/04/09 06:37:45;;;;;;;13.07;2.53;;;;;;;5.70;79.34;101030.41;4991849;28;20348;-85
2022/04/09 06:40:10;;;;;;;10.57;2.38;;;;;;;5.41;77.26;101038.09;4993142;28;20034;-86
2022/04/09 06:42:39;;;;;;;11.43;1.67;;;;;;;5.10;80.50;101038.94;5003540;28;20126;-85
2022/04/09 06:45:06;;;;;;;14.60;1.80;;;;;;;4.79;82.59;101068.81;4993279;28;20040;-85
2022/04/09 06:47:35;;;;;;;12.25;2.13;;;;;;;4.55;84.05;101068.72;4992631;28;20522;-85
2022/04/09 06:50:00;;;;;;;9.20;2.15;;;;;;;4.39;84.93;101070.34;4991384;28;20046;-86
2022/04/09 06:52:26;;;;;;;9.95;2.15;;;;;;;4.28;85.69;101079.72;4991631;28;20442;-85
2022/04/09 06:54:55;;;;;;;12.83;2.20;;;;;;;4.18;86.67;101083.94;4992852;28;20388;-86
2022/04/09 06:57:21;;;;;;;13.50;2.65;;;;;;;4.13;89.08;101084.75;4988911;28;20284;-86
2022/04/09 06:59:46;;;;;;;14.43;2.72;;;;;;;4.06;88.42;101083.84;4992692;28;20038;-85
2022/04/09 07:02:11;;;;;;;12.23;2.30;;;;;;;3.95;88.47;101093.19;4990028;28;20519;-86
2022/04/09 07:04:36;;;;;;;10.90;2.67;;;;;;;3.86;90.35;101111.06;4983356;28;20296;-86
2022/04/09 07:07:02;;;;;;;6.57;2.70;;;;;;;3.73;90.85;101112.66;4992596;28;20324;-86
2022/04/09 07:09:27;;;;;;;6.05;1.85;;;;;;;3.56;89.70;101099.69;4992393;28;20121;-86
2022/04/09 07:11:52;;;;;;;4.78;1.83;;;;;;;3.47;90.36;101091.94;4988469;28;20038;-86
2022/04/09 07:14:18;;;;;;;8.63;2.20;;;;;;;3.39;91.49;101088.44;4985218;28;20399;-86
2022/04/09 07:16:45;;;;;;;5.80;2.23;;;;;;;3.46;92.39;101089.38;4986531;28;20289;-86
2022/04/09 07:19:10;;;;;;;4.90;1.95;;;;;;;3.48;92.75;101101.31;4992185;28;20335;-86
2022/04/09 07:21:36;;;;;;;8.57;2.30;;;;;;;3.56;93.32;101101.41;4982247;28;20113;-86
2022/04/09 07:24:01;;;;;;;8.15;2.40;;;;;;;3.68;93.19;101098.09;4991766;28;20446;-86
2022/04/09 07:26:26;;;;;;;8.82;2.50;;;;;;;3.90;95.24;101100.84;4992154;28;20045;-86
2022/04/09 07:28:53;;;;;;;9.65;3.17;;;;;;;4.15;94.85;101096.75;4991871;28;20041;-86
2022/04/09 07:31:18;;;;;;;10.65;2.75;;;;;;;4.37;94.18;101118.25;4992179;28;20505;-86
2022/04/09 07:33:43;;;;;;;12.38;3.95;;;;;;;4.87;95.57;101109.94;4997890;28;20592;-86
2022/04/09 07:36:09;;;;;;;12.63;3.38;;;;;;;5.43;92.51;101107.53;5009306;28;20037;-86
2022/04/09 07:38:34;;;;;;;11.73;3.00;;;;;;;5.84;89.25;101107.56;4998214;28;20030;-86
2022/04/09 07:40:59;;;;;;;9.50;3.10;;;;;;;6.30;90.10;101103.22;5000705;28;20512;-86
2022/04/09 07:43:25;;;;;;;8.70;3.22;;;;;;;6.70;88.81;101106.53;4994892;28;20037;-86
2022/04/09 07:45:50;;;;;;;13.95;4.43;;;;;;;7.16;88.22;101107.22;4996118;28;20658;-86
2022/04/09 07:48:16;;;;;;;15.50;4.20;;;;;;;7.90;85.69;101104.09;4997958;28;20041;-86
2022/04/09 07:50:41;;;;;;;11.35;3.80;;;;;;;8.56;82.72;101103.47;5004209;28;20761;-86
2022/04/09 07:53:11;;;;;;;10.65;3.15;;;;;;;8.47;80.10;101107.00;5000735;28;20511;-86
2022/04/09 07:55:38;;;;;;;9.23;3.13;;;;;;;8.14;77.34;101113.34;4996867;28;20112;-86
2022/04/09 07:58:06;;;;;;;13.32;3.92;;;;;;;7.79;77.03;101115.34;5002900;28;20110;-86
2022/04/09 08:00:32;;;;;;;11.35;3.03;;;;;;;7.54;79.25;101127.59;4989928;28;20030;-86
2022/04/09 08:02:57;;;;;;;10.75;3.20;;;;;;;7.38;79.41;101124.25;4998049;28;20026;-85
2022/04/09 08:05:22;;;;;;;11.80;3.10;;;;;;;7.29;78.21;101115.72;4991274;28;20019;-86
2022/04/09 08:07:48;;;;;;;13.13;3.20;;;;;;;7.30;81.64;101127.75;4990375;28;20698;-85
2022/04/09 08:10:16;;;;;;;15.10;3.40;;;;;;;7.43;82.57;101131.97;4992110;28;20077;-85
2022/04/09 08:12:42;;;;;;;12.73;3.13;;;;;;;7.61;80.58;101144.75;4999401;28;20045;-86
2022/04/09 08:15:09;;;;;;;11.77;3.33;;;;;;;7.67;80.97;101139.53;4991512;28;20026;-85
2022/04/09 08:17:39;;;;;;;8.95;2.85;;;;;;;7.77;83.04;101148.09;4999150;28;20034;-86
2022/04/09 08:20:05;;;;;;;15.07;3.65;;;;;;;7.99;82.67;101141.00;4994926;28;20030;-85
2022/04/09 08:22:31;;;;;;;11.38;3.13;;;;;;;8.70;82.52;101138.63;4983724;28;20391;-85
2022/04/09 08:24:56;;;;;;;11.57;3.53;;;;;;;9.18;78.65;101128.53;4989065;28;20488;-85
2022/04/09 08:27:22;;;;;;;10.98;3.15;;;;;;;9.38;76.92;101134.31;4989797;28;20026;-85
2022/04/09 08:29:47;;;;;;;8.05;3.28;;;;;;;9.24;76.60;101128.47;4993260;28;20030;-86
2022/04/09 08:32:13;;;;;;;12.55;3.97;;;;;;;9.41;79.39;101129.09;4992520;28;20034;-85
2022/04/09 08:34:39;;;;;;;12.60;3.20;;;;;;;9.88;76.52;101141.31;4990917;28;20491;-85
2022/04/09 08:37:08;;;;;;;10.00;3.30;;;;;;;10.14;74.83;101153.81;4998088;28;20030;-85
2022/04/09 08:39:36;;;;;;;12.35;3.13;;;;;;;9.82;73.20;101205.28;4989648;28;20499;-86
2022/04/09 08:42:03;;;;;;;4.03;1.27;;;;;;;8.80;69.85;101197.97;4992003;28;20030;-84
2022/04/09 08:44:33;;;;;;;4.35;1.00;;;;;;;7.61;74.78;101180.00;4994630;28;20395;-86
2022/04/09 08:46:59;;;;;;;4.25;1.70;;;;;;;6.74;77.52;101177.81;4986556;28;20480;-86
2022/04/09 08:49:25;;;;;;;5.93;1.83;;;;;;;6.24;79.97;101168.47;4992474;28;20055;-85
2022/04/09 08:51:51;;;;;;;5.20;1.90;;;;;;;5.99;83.76;101178.75;4992075;28;20041;-86
2022/04/09 08:54:18;;;;;;;8.32;1.95;;;;;;;5.86;84.83;101183.88;4990796;28;20054;-86
2022/04/09 08:56:44;;;;;;;7.68;2.10;;;;;;;5.80;85.75;101194.13;4989385;28;20105;-86
2022/04/09 08:59:10;;;;;;;5.90;1.98;;;;;;;5.79;85.80;101196.72;4990426;28;20034;-85
2022/04/09 09:01:36;;;;;;;8.07;2.47;;;;;;;6.28;90.55;101193.31;4989322;28;20273;-85
2022/04/09 09:04:01;;;;;;;6.18;2.22;;;;;;;6.91;84.31;101191.50;4990218;28;20031;-86
2022/04/09 09:06:35;;;;;;;4.68;2.28;;;;;;;7.10;84.61;101189.69;4996432;28;20058;-85
2022/04/09 09:09:04;;;;;;;6.40;2.38;;;;;;;7.09;82.97;101188.88;4986172;28;20493;-85
2022/04/09 09:11:46;;;;;;;7.63;2.80;;;;;;;7.49;83.31;101192.13;4980412;28;20023;-86
2022/04/09 09:14:24;;;;;;;5.65;2.20;;;;;;;7.94;80.46;101197.84;5001974;28;20044;-86
2022/04/09 09:16:49;;;;;;;5.63;2.15;;;;;;;8.31;78.98;101188.97;4992206;28;20023;-85
2022/04/09 09:19:14;;;;;;;4.68;1.77;;;;;;;8.73;77.87;101201.50;4990372;28;20030;-86
2022/04/09 09:21:51;;;;;;;4.97;1.60;;;;;;;9.04;73.45;101214.06;4991065;28;20029;-85
2022/04/09 09:24:16;;;;;;;3.92;1.75;;;;;;;9.14;72.04;101232.06;4990111;28;20674;-85
2022/04/09 09:26:45;;;;;;;9.90;1.83;;;;;;;9.31;73.81;101228.38;4989144;28;20496;-85
2022/04/09 09:29:23;;;;;;;2.08;1.00;;;;;;;9.13;65.69;101233.78;4994348;28;20037;-86
2022/04/09 09:31:50;;;;;;;3.28;1.20;;;;;;;8.69;65.84;101244.59;4981237;28;20023;-86
2022/04/09 09:34:20;;;;;;;2.45;1.10;;;;;;;8.13;65.56;101243.28;4981310;28;20034;-86
2022/04/09 09:36:46;;;;;;;4.53;1.20;;;;;;;7.64;65.32;101250.50;4990274;28;20026;-86
2022/04/09 09:39:16;;;;;;;5.10;1.30;;;;;;;7.13;66.88;101231.81;4990175;28;20030;-86
2022/04/09 09:41:59;;;;;;;2.83;1.50;;;;;;;6.67;67.94;101235.38;4989114;28;20015;-86
2022/04/09 09:44:34;;;;;;;5.85;2.03;;;;;;;6.49;70.05;101225.91;5028245;28;20030;-86
2022/04/09 09:47:07;;;;;;;3.63;1.70;;;;;;;6.94;71.46;101231.88;4990336;28;20076;-86
2022/04/09 09:49:47;;;;;;;4.05;1.77;;;;;;;7.57;73.69;101223.03;4988716;28;20105;-86
2022/04/09 09:52:13;;;;;;;3.67;1.70;;;;;;;8.17;68.13;101231.25;4990041;28;20022;-86
2022/04/09 09:55:04;;;;;;;3.45;1.70;;;;;;;8.76;68.61;101235.91;5001689;28;20030;-85
2022/04/09 09:57:30;;;;;;;2.60;1.42;;;;;;;9.11;68.58;101236.38;5006439;28;20022;-86
2022/04/09 09:59:58;;;;;;;4.28;1.50;;;;;;;9.24;63.34;101224.16;5002091;28;20053;-86
2022/04/09 10:02:25;;;;;;;3.72;1.65;;;;;;;9.41;65.16;101224.81;4992819;28;20014;-86
2022/04/09 10:04:53;;;;;;;4.90;1.70;;;;;;;9.58;65.24;101228.91;4994044;28;20039;-86
2022/04/09 10:07:20;;;;;;;8.73;1.83;;;;;;;9.74;65.50;101220.91;4993668;28;20033;-86
2022/04/09 10:09:47;;;;;;;6.30;2.35;;;;;;;9.83;66.04;101230.25;4993701;28;20576;-86
2022/04/09 10:12:25;;;;;;;7.28;2.20;;;;;;;9.94;65.41;101233.56;5005390;28;20400;-86
2022/04/09 10:14:56;;;;;;;8.07;2.15;;;;;;;10.03;63.89;101222.22;4985542;28;20443;-86
2022/04/09 10:17:23;;;;;;;7.15;2.10;;;;;;;10.46;65.18;101209.44;4993306;28;20026;-86
2022/04/09 10:19:55;;;;;;;7.13;2.40;;;;;;;10.85;65.48;101210.47;4993584;28;21069;-86
2022/04/09 10:22:23;;;;;;;8.25;2.20;;;;;;;11.00;59.98;101205.84;4992255;28;20054;-86
2022/04/09 10:24:50;;;;;;;10.15;3.10;;;;;;;11.11;59.24;101202.19;4997617;28;20062;-86
2022/04/09 10:27:35;;;;;;;9.88;2.80;;;;;;;11.31;60.76;101213.00;4994969;28;20056;-87
2022/04/09 10:30:02;;;;;;;7.80;2.15;;;;;;;11.39;57.98;101221.50;4999271;28;20022;-86
2022/04/09 10:32:43;;;;;;;7.38;2.40;;;;;;;11.19;61.55;101216.69;4980651;28;20026;-86
2022/04/09 10:35:25;;;;;;;6.63;2.53;;;;;;;10.95;62.02;101212.84;4993131;28;20450;-87
2022/04/09 10:38:16;;;;;;;6.80;2.67;;;;;;;10.97;60.47;101226.66;4982434;28;20085;-86
2022/04/09 10:40:50;;;;;;;5.47;1.80;;;;;;;10.86;55.77;101233.75;4992520;28;20466;-86
2022/04/09 10:43:21;;;;;;;8.07;1.90;;;;;;;10.89;54.33;101227.69;4991608;28;20038;-86
2022/04/09 10:46:02;;;;;;;7.13;1.73;;;;;;;11.11;53.11;101221.19;4990375;28;20042;-86
2022/04/09 10:48:31;;;;;;;5.57;1.70;;;;;;;11.03;52.54;101221.34;4989244;28;20104;-86
2022/04/09 10:51:18;;;;;;;5.20;1.73;;;;;;;10.86;55.05;101238.09;4993107;28;20216;-86
2022/04/09 10:53:50;;;;;;;5.50;2.50;;;;;;;10.79;54.93;101224.38;4993020;28;20412;-86
2022/04/09 10:56:17;;;;;;;6.90;2.33;;;;;;;11.02;58.46;101223.97;5004294;28;20041;-86
2022/04/09 10:59:04;;;;;;;6.07;1.92;;;;;;;11.38;58.46;101224.97;4998967;28;20033;-86
2022/04/09 11:07:14;;;;;;;3.63;1.40;;;;;;;11.03;51.78;101234.31;4994934;28;20037;-85
2022/04/09 11:09:52;;;;;;;5.97;1.50;;;;;;;11.29;50.92;101235.53;4996319;28;20117;-86
2022/04/09 11:12:20;;;;;;;4.25;1.30;;;;;;;11.50;47.32;101227.31;4988843;28;20054;-86
2022/04/09 11:14:47;;;;;;;5.10;1.52;;;;;;;11.54;47.00;101223.75;5007379;28;20562;-86
2022/04/09 11:17:23;;;;;;;6.80;1.77;;;;;;;11.55;50.81;101234.97;4992557;28;20373;-86
2022/04/09 11:19:49;;;;;;;4.05;1.27;;;;;;;11.67;47.09;101217.41;4998333;28;20041;-87
2022/04/09 11:22:15;;;;;;;6.78;1.50;;;;;;;11.71;44.60;101228.59;4992437;28;20250;-86
2022/04/09 11:24:41;;;;;;;1.98;1.27;;;;;;;11.78;46.63;101225.00;4992458;28;20023;-86
2022/04/09 11:27:07;;;;;;;3.92;1.50;;;;;;;11.78;44.27;101225.00;4992333;28;20030;-86
2022/04/09 11:29:36;;;;;;;3.35;1.20;;;;;;;11.75;44.15;101222.44;4996729;28;20061;-86
2022/04/09 11:32:02;;;;;;;5.43;1.30;;;;;;;11.64;42.74;101232.19;4992152;28;20555;-86